This is the latest recevied weather packets stored in our database for station/object K3MV-13. If no packets are shown the sender has not sent any weather packets the latest 10 day(s).
| Time | Temp. | Humidity | Pressure | Rain* | Wind** | Luminosity | Snow |
|---|---|---|---|---|---|---|---|
| 1777927707 | 20° C | 50% | 1009.2 hPa | 0 mm | - | 145 W/m² | - |
| 1777927405 | 19.44° C | 51% | 1009.3 hPa | 0 mm | - | 135 W/m² | - |
| 1777927104 | 19.44° C | 50% | 1009.3 hPa | 0 mm | - | 117 W/m² | - |
| 1777926801 | 20.56° C | 46% | 1009.1 hPa | 0 mm | - | 118 W/m² | - |
| 1777926496 | 21.11° C | 47% | 1009.2 hPa | 0 mm | - | 182 W/m² | - |
| 1777926194 | 20.56° C | 47% | 1009.2 hPa | 0 mm | - | 154 W/m² | - |
| 1777925890 | 20° C | 48% | 1009.2 hPa | 0 mm | - | 208 W/m² | - |
| 1777925588 | 20.56° C | 46% | 1009.2 hPa | 0 mm | - | 143 W/m² | - |
| 1777925285 | 20° C | 49% | 1009.3 hPa | 0 mm | - | 131 W/m² | - |
| 1777924981 | 20.56° C | 47% | 1009.5 hPa | 0 mm | - | 158 W/m² | - |
| 1777924678 | 21.67° C | 45% | 1009.3 hPa | 0 mm | - | 184 W/m² | - |
| 1777924373 | 20.56° C | 47% | 1009.6 hPa | 0 mm | - | 200 W/m² | - |
| 1777924071 | 20.56° C | 46% | 1009.6 hPa | 0 mm | - | 212 W/m² | - |
| 1777923767 | 20° C | 49% | 1009.6 hPa | 0 mm | - | 232 W/m² | - |
| 1777923463 | 20° C | 47% | 1009.7 hPa | 0 mm | - | 187 W/m² | - |
| 1777923161 | 20.56° C | 47% | 1009.5 hPa | 0 mm | - | 326 W/m² | - |
| 1777922859 | 20.56° C | 49% | 1009.8 hPa | 0 mm | - | 164 W/m² | - |
| 1777922557 | 20.56° C | 47% | 1009.7 hPa | 0 mm | - | 169 W/m² | - |
| 1777922255 | 20.56° C | 48% | 1009.9 hPa | 0 mm | - | 365 W/m² | - |
| 1777921952 | 20.56° C | 47% | 1010 hPa | 0 mm | - | 233 W/m² | - |
| 1777921647 | 20.56° C | 46% | 1010 hPa | 0 mm | - | 215 W/m² | - |
| 1777921344 | 20.56° C | 49% | 1010.1 hPa | 0 mm | - | 230 W/m² | - |
| 1777921040 | 21.11° C | 46% | 1009.9 hPa | 0 mm | - | 291 W/m² | - |
| 1777920737 | 21.11° C | 46% | 1010.1 hPa | 0 mm | - | 793 W/m² | - |
| 1777920433 | 20° C | 49% | 1010.2 hPa | 0 mm | - | 832 W/m² | - |
* Rain latest hour (hover to see other rain measurements)
** Current wind speed in m/s (hover to see current wind gust speed)